createdAt,value
2023-07-07T00:00:04.279Z,6.07
2023-07-07T00:02:08.016Z,7.10
2023-07-07T00:04:11.657Z,5.83
2023-07-07T00:06:15.147Z,7.20
2023-07-07T00:08:18.558Z,6.27
2023-07-07T00:10:22.799Z,6.13
2023-07-07T00:12:26.341Z,6.43
2023-07-07T00:14:30.128Z,6.47
2023-07-07T00:16:38.951Z,6.00
2023-07-07T00:18:42.459Z,7.20
2023-07-07T00:20:44.832Z,7.27
2023-07-07T00:22:49.067Z,6.23
2023-07-07T00:24:52.770Z,7.07
2023-07-07T00:26:56.438Z,7.40
2023-07-07T00:29:00.232Z,6.93
2023-07-07T00:31:04.492Z,7.33
2023-07-07T00:33:09.623Z,7.40
2023-07-07T00:35:13.011Z,7.03
2023-07-07T00:37:16.669Z,6.10
2023-07-07T00:39:20.203Z,6.90
2023-07-07T00:41:23.867Z,7.07
2023-07-07T00:43:27.708Z,6.67
2023-07-07T00:45:31.482Z,6.80
2023-07-07T00:47:34.617Z,7.17
2023-07-07T00:49:39.696Z,6.43
2023-07-07T00:51:47.120Z,6.40
2023-07-07T00:53:54.304Z,7.33
2023-07-07T00:56:01.377Z,5.90
2023-07-07T00:58:09.227Z,7.40
2023-07-07T01:00:13.599Z,7.03
2023-07-07T01:02:26.721Z,8.10
2023-07-07T01:04:32.340Z,6.70
2023-07-07T01:06:41.038Z,7.60
2023-07-07T01:08:47.508Z,6.90
2023-07-07T01:10:50.960Z,7.67
2023-07-07T01:12:54.517Z,7.03
2023-07-07T01:14:58.131Z,6.50
2023-07-07T01:17:15.666Z,7.33
2023-07-07T01:19:42.800Z,7.50
2023-07-07T01:21:57.144Z,6.40
2023-07-07T01:24:38.088Z,7.47
2023-07-07T01:27:23.587Z,7.07
2023-07-07T01:29:59.433Z,6.43
2023-07-07T01:32:08.369Z,6.00
2023-07-07T01:34:14.688Z,6.33
2023-07-07T01:36:18.845Z,6.53
2023-07-07T01:38:35.055Z,6.47
2023-07-07T01:40:45.279Z,5.87
2023-07-07T01:42:52.042Z,6.63
2023-07-07T01:45:02.227Z,6.87
2023-07-07T01:47:15.732Z,7.40
2023-07-07T01:49:23.616Z,6.60
2023-07-07T01:51:34.392Z,8.03
2023-07-07T01:53:41.485Z,6.43
2023-07-07T01:55:52.561Z,6.77
2023-07-07T01:57:59.123Z,6.37
2023-07-07T02:00:03.133Z,6.33
2023-07-07T02:02:09.544Z,5.80
2023-07-07T02:04:12.088Z,5.53
2023-07-07T02:06:15.536Z,5.93
2023-07-07T02:08:18.947Z,5.80
2023-07-07T02:10:22.737Z,5.20
2023-07-07T02:12:26.609Z,6.10
2023-07-07T02:14:30.044Z,6.03
2023-07-07T02:16:33.343Z,6.97
2023-07-07T02:18:39.124Z,4.93
2023-07-07T02:20:42.796Z,6.03
2023-07-07T02:22:46.162Z,6.43
2023-07-07T02:24:49.903Z,6.70
2023-07-07T02:26:53.193Z,6.30
2023-07-07T02:28:56.900Z,5.30
2023-07-07T02:31:00.943Z,5.17
2023-07-07T02:33:09.870Z,5.50
2023-07-07T02:35:16.688Z,6.03
2023-07-07T02:37:20.692Z,5.30
2023-07-07T02:39:24.449Z,5.90
2023-07-07T02:41:28.093Z,5.20
2023-07-07T02:43:30.970Z,5.73
2023-07-07T02:45:35.186Z,4.70
2023-07-07T02:47:38.577Z,5.73
2023-07-07T02:49:42.578Z,5.70
2023-07-07T02:51:47.523Z,4.83
2023-07-07T02:53:51.172Z,6.80
2023-07-07T02:55:54.884Z,5.07
2023-07-07T02:57:58.902Z,5.43
2023-07-07T03:00:02.275Z,5.90
2023-07-07T03:02:07.386Z,5.63
2023-07-07T03:04:11.638Z,5.07
2023-07-07T03:06:18.575Z,4.80
2023-07-07T03:08:23.524Z,5.33
2023-07-07T03:10:26.969Z,5.97
2023-07-07T03:12:30.221Z,5.53
2023-07-07T03:14:33.922Z,5.87
2023-07-07T03:16:37.667Z,5.50
2023-07-07T03:18:41.719Z,6.00
2023-07-07T03:20:49.199Z,5.73
2023-07-07T03:22:52.657Z,6.97
2023-07-07T03:24:57.541Z,5.10
2023-07-07T03:27:00.872Z,5.87
2023-07-07T03:29:05.532Z,5.60
2023-07-07T03:31:12.443Z,4.80
2023-07-07T03:33:16.111Z,6.27
2023-07-07T03:35:19.733Z,6.33
2023-07-07T03:37:23.351Z,5.10
2023-07-07T03:39:26.652Z,5.57
2023-07-07T03:41:32.103Z,5.03
2023-07-07T03:43:36.691Z,6.33
2023-07-07T03:45:40.209Z,5.20
2023-07-07T03:47:44.091Z,5.77
2023-07-07T03:49:48.811Z,5.10
2023-07-07T03:51:52.608Z,5.00
2023-07-07T03:53:56.102Z,6.33
2023-07-07T03:55:59.804Z,6.43
2023-07-07T03:58:04.622Z,5.33
2023-07-07T04:00:09.972Z,5.17
2023-07-07T04:02:15.402Z,5.40
2023-07-07T04:04:19.231Z,5.90
2023-07-07T04:06:22.897Z,5.70
2023-07-07T04:08:27.501Z,6.30
2023-07-07T04:10:31.227Z,5.70
2023-07-07T04:12:35.129Z,6.50
2023-07-07T04:14:40.262Z,6.03
2023-07-07T04:16:43.809Z,5.33
2023-07-07T04:18:48.178Z,5.57
2023-07-07T04:20:51.871Z,5.60
2023-07-07T04:22:55.298Z,6.47
2023-07-07T04:25:15.797Z,6.00
2023-07-07T04:27:19.346Z,5.73
2023-07-07T04:29:22.928Z,5.70
2023-07-07T04:31:29.552Z,5.70
2023-07-07T04:33:34.155Z,5.37
2023-07-07T04:35:38.432Z,5.97
2023-07-07T04:37:41.823Z,5.57
2023-07-07T04:39:45.328Z,5.60
2023-07-07T04:41:51.510Z,5.63
2023-07-07T04:43:57.284Z,5.73
2023-07-07T04:45:59.911Z,6.20
2023-07-07T04:48:05.048Z,5.80
2023-07-07T04:50:08.837Z,6.30
2023-07-07T04:52:12.338Z,6.30
2023-07-07T04:54:16.532Z,6.20
2023-07-07T04:56:21.862Z,6.10
2023-07-07T04:58:26.933Z,6.50
2023-07-07T05:00:30.511Z,5.60
2023-07-07T05:02:36.981Z,6.33
2023-07-07T05:04:42.295Z,5.40
2023-07-07T05:06:45.685Z,5.70
2023-07-07T05:08:49.798Z,5.50
2023-07-07T05:10:53.498Z,5.30
2023-07-07T05:12:56.980Z,5.80
2023-07-07T05:15:00.844Z,5.73
2023-07-07T05:17:04.325Z,5.30
2023-07-07T05:19:08.873Z,5.80
2023-07-07T05:21:16.024Z,5.20
2023-07-07T05:23:19.528Z,5.53
2023-07-07T05:25:22.757Z,5.90
2023-07-07T05:27:26.017Z,5.10
2023-07-07T05:29:29.904Z,5.37
2023-07-07T05:31:33.546Z,6.03
2023-07-07T05:33:39.235Z,5.87
2023-07-07T05:35:48.775Z,5.23
2023-07-07T05:37:53.744Z,6.07
2023-07-07T05:39:57.780Z,4.97
2023-07-07T05:42:01.276Z,5.77
2023-07-07T05:44:04.692Z,5.03
2023-07-07T05:46:13.577Z,4.97
2023-07-07T05:48:17.424Z,5.63
2023-07-07T05:50:20.993Z,4.90
2023-07-07T05:52:24.687Z,4.83
2023-07-07T05:54:29.552Z,5.40
2023-07-07T05:56:33.460Z,5.10
2023-07-07T05:58:35.993Z,5.33
2023-07-07T06:00:39.796Z,5.57
2023-07-07T06:02:43.376Z,5.47
2023-07-07T06:04:46.937Z,5.40
2023-07-07T06:06:50.278Z,5.60
2023-07-07T06:08:53.926Z,4.67
2023-07-07T06:10:58.510Z,5.27
2023-07-07T06:13:04.660Z,5.83
2023-07-07T06:15:09.693Z,4.50
2023-07-07T06:17:13.423Z,4.77
2023-07-07T06:19:17.104Z,5.10
2023-07-07T06:21:21.227Z,4.90
2023-07-07T06:23:24.585Z,4.73
2023-07-07T06:25:28.421Z,5.07
2023-07-07T06:27:33.934Z,4.70
2023-07-07T06:29:37.628Z,5.57
2023-07-07T06:31:41.383Z,4.73
2023-07-07T06:33:44.721Z,5.00
2023-07-07T06:35:48.121Z,5.37
2023-07-07T06:37:51.843Z,4.80
2023-07-07T06:39:55.220Z,4.90
2023-07-07T06:41:59.339Z,5.80
2023-07-07T06:44:04.441Z,5.40
2023-07-07T06:46:08.147Z,5.83
2023-07-07T06:48:12.465Z,4.03
2023-07-07T06:50:19.440Z,5.47
2023-07-07T06:52:23.173Z,4.57
2023-07-07T06:54:26.782Z,4.20
2023-07-07T06:56:30.153Z,4.57
2023-07-07T06:58:34.537Z,4.70
2023-07-07T07:00:39.810Z,4.70
2023-07-07T07:02:43.795Z,5.00
2023-07-07T07:04:47.143Z,4.70
2023-07-07T07:06:50.627Z,3.97
2023-07-07T07:08:54.204Z,4.97
2023-07-07T07:10:57.716Z,6.07
2023-07-07T07:13:01.276Z,5.03
2023-07-07T07:15:04.965Z,5.30
2023-07-07T07:17:11.032Z,4.53
2023-07-07T07:19:14.755Z,5.00
2023-07-07T07:21:18.328Z,4.00
2023-07-07T07:23:21.700Z,4.70
2023-07-07T07:25:25.263Z,4.97
2023-07-07T07:27:28.934Z,4.87
2023-07-07T07:29:32.535Z,4.83
2023-07-07T07:31:35.956Z,4.27
2023-07-07T07:33:41.057Z,4.03
2023-07-07T07:35:44.399Z,4.57
2023-07-07T07:37:47.743Z,4.60
2023-07-07T07:39:51.323Z,4.63
2023-07-07T07:41:56.990Z,3.90
2023-07-07T07:44:00.368Z,4.90
2023-07-07T07:46:03.705Z,4.03
2023-07-07T07:48:07.806Z,4.87
2023-07-07T07:50:13.275Z,3.90
2023-07-07T07:52:17.084Z,5.57
2023-07-07T07:54:22.463Z,4.20
2023-07-07T07:56:27.107Z,4.07
2023-07-07T07:58:30.758Z,4.13
2023-07-07T08:00:34.226Z,4.20
2023-07-07T08:02:38.335Z,4.17
2023-07-07T08:04:42.126Z,3.97
2023-07-07T08:06:47.204Z,3.77
2023-07-07T08:08:50.452Z,3.60
2023-07-07T08:11:09.196Z,4.73
2023-07-07T08:13:13.589Z,3.90
2023-07-07T08:15:17.293Z,3.80
2023-07-07T08:17:20.866Z,4.20
2023-07-07T08:19:24.266Z,4.07
2023-07-07T08:21:27.935Z,4.03
2023-07-07T08:23:32.737Z,3.83
2023-07-07T08:25:36.358Z,3.13
2023-07-07T08:27:40.187Z,3.93
2023-07-07T08:29:44.371Z,4.13
2023-07-07T08:31:47.836Z,3.13
2023-07-07T08:33:57.696Z,3.47
2023-07-07T08:36:03.153Z,3.87
2023-07-07T08:38:06.749Z,3.57
2023-07-07T08:40:17.653Z,3.60
2023-07-07T08:42:25.238Z,3.20
2023-07-07T08:44:30.775Z,3.50
2023-07-07T08:46:53.787Z,3.83
2023-07-07T08:49:04.095Z,3.57
2023-07-07T08:51:12.042Z,3.57
2023-07-07T08:53:44.631Z,3.73
2023-07-07T08:56:00.962Z,3.43
2023-07-07T08:58:23.837Z,4.47
2023-07-07T09:00:47.240Z,3.37
2023-07-07T09:03:17.594Z,3.37
2023-07-07T09:05:34.258Z,3.23
2023-07-07T09:07:57.104Z,3.17
2023-07-07T09:10:16.540Z,3.63
2023-07-07T09:12:32.950Z,3.33
2023-07-07T09:14:37.936Z,3.23
2023-07-07T09:16:42.829Z,3.93
2023-07-07T09:18:50.190Z,3.40
2023-07-07T09:20:57.894Z,3.70
2023-07-07T09:23:06.164Z,3.70
2023-07-07T09:25:17.716Z,3.93
2023-07-07T09:27:28.027Z,4.13
2023-07-07T09:29:33.844Z,4.17
2023-07-07T09:31:42.751Z,3.63
2023-07-07T09:33:45.394Z,3.83
2023-07-07T09:35:57.111Z,3.20
2023-07-07T09:38:13.277Z,3.87
2023-07-07T09:40:20.209Z,4.30
2023-07-07T09:42:41.643Z,3.53
2023-07-07T09:44:59.757Z,3.50
2023-07-07T09:47:13.427Z,3.33
2023-07-07T09:49:22.609Z,3.30
2023-07-07T09:51:37.574Z,3.77
2023-07-07T09:55:49.810Z,3.77
2023-07-07T09:58:02.011Z,3.90
2023-07-07T10:00:07.085Z,3.70
2023-07-07T10:02:16.476Z,3.50
2023-07-07T10:04:22.362Z,3.47
2023-07-07T10:06:33.063Z,3.80
2023-07-07T10:08:37.497Z,3.23
2023-07-07T10:10:40.888Z,3.30
2023-07-07T10:12:44.978Z,3.33
2023-07-07T10:14:51.067Z,3.77
2023-07-07T10:17:04.085Z,2.90
2023-07-07T10:19:11.516Z,3.53
2023-07-07T10:21:16.564Z,3.40
2023-07-07T10:23:20.040Z,3.03
2023-07-07T10:25:22.787Z,3.30
2023-07-07T10:27:29.131Z,3.70
2023-07-07T10:29:38.314Z,3.67
2023-07-07T10:31:45.860Z,3.17
2023-07-07T10:33:52.228Z,3.57
2023-07-07T10:35:55.698Z,4.20
2023-07-07T10:38:04.668Z,3.93
2023-07-07T10:40:14.418Z,3.63
2023-07-07T10:42:17.702Z,4.03
2023-07-07T10:44:21.248Z,3.77
2023-07-07T10:46:25.011Z,3.60
2023-07-07T10:48:29.900Z,3.83
2023-07-07T10:50:36.576Z,3.90
2023-07-07T10:55:10.621Z,3.87
2023-07-07T10:57:23.828Z,3.90
2023-07-07T10:59:43.673Z,4.43
2023-07-07T11:02:00.053Z,3.03
2023-07-07T11:04:25.819Z,3.77
2023-07-07T11:06:40.049Z,3.30
2023-07-07T11:08:52.471Z,3.97
2023-07-07T11:11:07.651Z,4.03
2023-07-07T11:13:20.354Z,3.50
2023-07-07T11:15:32.054Z,4.40
2023-07-07T11:17:52.613Z,3.90
2023-07-07T11:20:14.319Z,4.00
2023-07-07T11:22:25.690Z,3.97
2023-07-07T11:24:56.449Z,3.60
2023-07-07T11:27:25.854Z,3.43
2023-07-07T11:29:38.333Z,3.70
2023-07-07T11:31:56.598Z,4.30
2023-07-07T11:34:09.382Z,4.20
2023-07-07T11:36:46.607Z,3.70
2023-07-07T11:39:06.597Z,4.10
2023-07-07T11:41:16.456Z,4.47
2023-07-07T11:43:38.074Z,4.20
2023-07-07T11:45:52.263Z,3.83
2023-07-07T11:48:18.385Z,3.90
2023-07-07T11:50:30.546Z,3.90
2023-07-07T11:52:55.588Z,3.90
2023-07-07T11:55:18.134Z,3.50
2023-07-07T11:57:37.687Z,4.00
2023-07-07T12:00:04.963Z,4.03
2023-07-07T12:02:16.771Z,3.93
2023-07-07T12:04:26.850Z,4.10
2023-07-07T12:06:35.827Z,4.20
2023-07-07T12:08:46.604Z,3.83
2023-07-07T12:10:56.121Z,3.83
2023-07-07T12:13:05.578Z,4.27
2023-07-07T12:15:16.944Z,3.73
2023-07-07T12:17:25.591Z,3.90
2023-07-07T12:19:36.164Z,4.13
2023-07-07T12:21:42.113Z,3.13
2023-07-07T12:23:55.438Z,4.43
2023-07-07T12:26:05.568Z,4.27
2023-07-07T12:28:10.398Z,3.80
2023-07-07T12:30:17.858Z,4.40
2023-07-07T12:32:23.328Z,3.90
2023-07-07T12:34:40.992Z,3.93
2023-07-07T12:36:44.336Z,3.80
2023-07-07T12:38:54.158Z,3.70
2023-07-07T12:40:59.304Z,4.17
2023-07-07T12:43:19.016Z,3.40
2023-07-07T12:45:30.241Z,3.70
2023-07-07T12:47:33.524Z,4.80
2023-07-07T12:49:39.796Z,3.70
2023-07-07T12:51:43.191Z,4.70
2023-07-07T12:53:48.602Z,4.23
2023-07-07T12:56:04.852Z,4.13
2023-07-07T12:58:46.166Z,4.80
2023-07-07T13:00:49.611Z,4.40
2023-07-07T13:03:09.998Z,4.90
2023-07-07T13:05:23.239Z,4.50
2023-07-07T13:07:31.446Z,4.20
2023-07-07T13:09:52.455Z,3.90
2023-07-07T13:11:59.045Z,4.57
2023-07-07T13:14:02.526Z,4.40
2023-07-07T13:16:07.845Z,4.37
2023-07-07T13:18:12.450Z,4.00
2023-07-07T13:20:19.141Z,4.70
2023-07-07T13:22:26.819Z,4.33
2023-07-07T13:24:39.880Z,4.30
2023-07-07T13:26:43.407Z,4.50
2023-07-07T13:28:48.147Z,3.90
2023-07-07T13:30:55.942Z,5.10
2023-07-07T13:33:02.111Z,4.50
2023-07-07T13:35:06.284Z,4.10
2023-07-07T13:37:10.670Z,3.53
2023-07-07T13:39:15.568Z,4.03
2023-07-07T13:41:22.054Z,3.50
2023-07-07T13:43:31.052Z,4.30
2023-07-07T13:45:37.935Z,4.13
2023-07-07T13:47:43.342Z,4.00
2023-07-07T13:49:47.619Z,4.03
2023-07-07T13:51:54.075Z,3.73
2023-07-07T13:53:59.011Z,4.60
2023-07-07T13:56:03.279Z,3.77
2023-07-07T13:58:12.962Z,3.87
2023-07-07T14:00:30.129Z,3.50
2023-07-07T14:02:36.574Z,4.00
2023-07-07T14:04:40.955Z,3.17
2023-07-07T14:06:47.705Z,3.63
2023-07-07T14:08:51.014Z,4.20
2023-07-07T14:10:56.457Z,4.13
2023-07-07T14:13:00.456Z,4.50
2023-07-07T14:15:04.158Z,4.70
2023-07-07T14:17:16.314Z,4.53
2023-07-07T14:19:25.512Z,4.63
2023-07-07T14:21:32.205Z,4.43
2023-07-07T14:23:37.650Z,4.10
2023-07-07T14:25:45.311Z,3.83
2023-07-07T14:27:48.997Z,3.87
2023-07-07T14:29:53.641Z,3.87
2023-07-07T14:32:02.001Z,3.60
2023-07-07T14:34:05.726Z,3.87
2023-07-07T14:36:19.351Z,3.70
2023-07-07T14:38:30.359Z,3.97
2023-07-07T14:40:35.820Z,4.47
2023-07-07T14:42:50.877Z,4.03
2023-07-07T14:44:56.198Z,4.03
2023-07-07T14:46:59.975Z,4.13
2023-07-07T14:49:15.075Z,3.60
2023-07-07T14:51:23.884Z,3.77
2023-07-07T14:53:27.818Z,4.77
2023-07-07T14:55:32.629Z,3.67
2023-07-07T14:57:41.822Z,4.30
2023-07-07T14:59:45.252Z,4.70
2023-07-07T15:01:57.840Z,4.40
2023-07-07T15:04:02.349Z,4.00
2023-07-07T15:06:35.771Z,4.50
2023-07-07T15:08:40.899Z,4.10
2023-07-07T15:10:45.212Z,4.07
2023-07-07T15:12:49.807Z,4.10
2023-07-07T15:14:53.306Z,4.07
2023-07-07T15:16:56.636Z,3.67
2023-07-07T15:19:00.765Z,4.27
2023-07-07T15:21:04.328Z,5.80
2023-07-07T15:23:09.445Z,4.57
2023-07-07T15:25:13.812Z,4.43
2023-07-07T15:27:17.703Z,4.67
2023-07-07T15:29:23.357Z,5.43
2023-07-07T15:31:28.000Z,4.97
2023-07-07T15:33:31.662Z,6.93
2023-07-07T15:35:35.779Z,5.80
2023-07-07T15:37:39.229Z,4.27
2023-07-07T15:39:44.494Z,4.30
2023-07-07T15:41:48.123Z,5.60
2023-07-07T15:43:50.557Z,5.40
2023-07-07T15:45:54.894Z,4.67
2023-07-07T15:47:58.384Z,5.17
2023-07-07T15:50:01.734Z,4.23
2023-07-07T15:52:07.884Z,4.33
2023-07-07T15:54:12.760Z,4.60
2023-07-07T15:56:17.664Z,5.53
2023-07-07T15:58:21.035Z,4.20
2023-07-07T16:00:29.716Z,5.87
2023-07-07T16:02:33.199Z,7.30
2023-07-07T16:04:35.670Z,7.13
2023-07-07T16:06:39.759Z,4.47
2023-07-07T16:08:43.323Z,6.80
2023-07-07T16:10:46.735Z,10.20
2023-07-07T16:12:51.443Z,6.00
2023-07-07T16:14:55.056Z,5.03
2023-07-07T16:16:58.375Z,4.37
2023-07-07T16:19:01.752Z,5.07
2023-07-07T16:21:05.058Z,3.80
2023-07-07T16:23:08.932Z,6.33
2023-07-07T16:25:12.205Z,4.30
2023-07-07T16:27:17.271Z,3.80
2023-07-07T16:29:22.082Z,4.60
2023-07-07T16:31:28.897Z,4.27
2023-07-07T16:33:32.271Z,3.77
2023-07-07T16:35:36.506Z,4.20
2023-07-07T16:37:40.751Z,4.17
2023-07-07T16:39:44.114Z,4.60
2023-07-07T16:41:48.044Z,4.30
2023-07-07T16:43:52.080Z,4.40
2023-07-07T16:45:56.898Z,4.50
2023-07-07T16:48:00.587Z,4.43
2023-07-07T16:50:04.615Z,4.33
2023-07-07T16:52:09.469Z,4.67
2023-07-07T16:54:12.904Z,4.07
2023-07-07T16:56:20.003Z,5.03
2023-07-07T16:58:23.312Z,4.70
2023-07-07T17:00:28.671Z,4.70
2023-07-07T17:02:33.726Z,4.73
2023-07-07T17:04:37.137Z,4.37
2023-07-07T17:06:40.786Z,4.30
2023-07-07T17:08:44.427Z,4.10
2023-07-07T17:10:47.775Z,4.43
2023-07-07T17:12:50.189Z,4.10
2023-07-07T17:14:53.806Z,4.70
2023-07-07T17:16:57.532Z,4.77
2023-07-07T17:19:04.380Z,4.23
2023-07-07T17:21:10.725Z,4.20
2023-07-07T17:23:14.015Z,4.30
2023-07-07T17:25:18.894Z,4.93
2023-07-07T17:27:22.568Z,4.30
2023-07-07T17:29:25.977Z,4.30
2023-07-07T17:31:35.090Z,4.67
2023-07-07T17:33:37.419Z,4.50
2023-07-07T17:35:42.899Z,5.00
2023-07-07T17:37:47.429Z,4.70
2023-07-07T17:39:51.229Z,4.37
2023-07-07T17:41:54.545Z,4.27
2023-07-07T17:43:58.808Z,3.93
2023-07-07T17:46:02.162Z,5.50
2023-07-07T17:48:10.870Z,4.10
2023-07-07T17:50:20.259Z,4.83
2023-07-07T17:52:25.066Z,4.97
2023-07-07T17:54:28.785Z,4.50
2023-07-07T17:56:33.993Z,4.90
2023-07-07T17:58:37.613Z,5.20
2023-07-07T18:00:44.284Z,4.87
2023-07-07T18:02:48.059Z,5.00
2023-07-07T18:04:51.572Z,5.03
2023-07-07T18:06:55.746Z,5.43
2023-07-07T18:09:01.836Z,4.70
2023-07-07T18:11:06.957Z,4.87
2023-07-07T18:13:10.668Z,4.93
2023-07-07T18:15:14.583Z,4.50
2023-07-07T18:17:41.452Z,4.03
2023-07-07T18:20:01.280Z,6.10
2023-07-07T18:22:12.656Z,4.30
2023-07-07T18:24:18.027Z,4.43
2023-07-07T18:26:28.986Z,4.40
2023-07-07T18:28:32.353Z,4.57
2023-07-07T18:30:39.270Z,5.60
2023-07-07T18:32:42.900Z,5.00
2023-07-07T18:34:46.328Z,5.13
2023-07-07T18:36:51.491Z,5.33
2023-07-07T18:38:54.750Z,5.57
2023-07-07T18:40:59.647Z,6.03
2023-07-07T18:43:03.107Z,5.07
2023-07-07T18:45:07.410Z,5.07
2023-07-07T18:47:16.725Z,4.70
2023-07-07T18:49:20.602Z,4.93
2023-07-07T18:51:24.328Z,4.50
2023-07-07T18:53:26.610Z,4.83
2023-07-07T18:55:30.629Z,5.43
2023-07-07T18:57:35.291Z,4.70
2023-07-07T18:59:38.782Z,5.47
2023-07-07T19:01:42.464Z,4.60
2023-07-07T19:03:46.873Z,5.47
2023-07-07T19:05:50.710Z,6.37
2023-07-07T19:07:55.057Z,4.80
2023-07-07T19:09:58.576Z,4.73
2023-07-07T19:12:02.049Z,4.73
2023-07-07T19:14:08.306Z,4.90
2023-07-07T19:16:18.953Z,4.87
2023-07-07T19:18:24.291Z,5.00
2023-07-07T19:20:27.789Z,5.17
2023-07-07T19:22:31.997Z,4.83
2023-07-07T19:24:35.746Z,5.10
2023-07-07T19:26:41.934Z,6.03
2023-07-07T19:28:46.251Z,5.30
2023-07-07T19:30:51.206Z,5.23
2023-07-07T19:32:54.507Z,6.00
2023-07-07T19:34:58.209Z,5.10
2023-07-07T19:37:01.632Z,5.20
2023-07-07T19:39:15.701Z,4.73
2023-07-07T19:41:21.328Z,4.30
2023-07-07T19:43:24.873Z,4.73
2023-07-07T19:45:28.806Z,5.40
2023-07-07T19:47:33.924Z,4.63
2023-07-07T19:49:37.615Z,5.50
2023-07-07T19:51:41.215Z,5.27
2023-07-07T19:53:45.589Z,5.20
2023-07-07T19:55:52.774Z,5.90
2023-07-07T19:57:56.204Z,4.47
2023-07-07T19:59:59.486Z,5.27
2023-07-07T20:02:02.856Z,4.90
2023-07-07T20:04:07.681Z,5.87
2023-07-07T20:06:13.423Z,5.60
2023-07-07T20:08:17.790Z,5.33
2023-07-07T20:10:24.354Z,5.63
2023-07-07T20:12:28.035Z,5.30
2023-07-07T20:14:31.484Z,5.30
2023-07-07T20:16:38.042Z,5.17
2023-07-07T20:18:41.567Z,4.80
2023-07-07T20:20:46.411Z,5.10
2023-07-07T20:22:50.044Z,5.80
2023-07-07T20:24:53.415Z,4.77
2023-07-07T20:27:04.258Z,6.77
2023-07-07T20:29:08.201Z,5.20
2023-07-07T20:31:13.638Z,5.07
2023-07-07T20:33:17.191Z,5.90
2023-07-07T20:35:22.323Z,6.60
2023-07-07T20:37:27.148Z,6.47
2023-07-07T20:39:31.081Z,5.53
2023-07-07T20:41:34.777Z,5.27
2023-07-07T20:43:38.194Z,5.53
2023-07-07T20:45:42.351Z,5.50
2023-07-07T20:47:46.784Z,5.93
2023-07-07T20:49:50.504Z,5.50
2023-07-07T20:51:53.809Z,5.50
2023-07-07T20:53:58.714Z,5.87
2023-07-07T20:56:02.258Z,5.47
2023-07-07T20:58:11.549Z,5.30
2023-07-07T21:00:19.618Z,5.47
2023-07-07T21:02:25.610Z,5.73
2023-07-07T21:04:30.699Z,5.23
2023-07-07T21:06:34.534Z,5.20
2023-07-07T21:08:37.792Z,5.33
2023-07-07T21:10:43.897Z,5.57
2023-07-07T21:12:47.483Z,5.00
2023-07-07T21:14:51.057Z,5.10
2023-07-07T21:16:55.631Z,5.30
2023-07-07T21:18:59.502Z,5.80
2023-07-07T21:21:02.995Z,5.90
2023-07-07T21:23:08.773Z,5.43
2023-07-07T21:25:11.115Z,6.00
2023-07-07T21:27:16.005Z,5.70
2023-07-07T21:29:19.429Z,5.10
2023-07-07T21:31:25.204Z,5.50
2023-07-07T21:33:28.782Z,6.10
2023-07-07T21:35:32.064Z,5.70
2023-07-07T21:37:35.611Z,5.13
2023-07-07T21:39:38.881Z,5.57
2023-07-07T21:41:43.950Z,5.93
2023-07-07T21:43:49.710Z,6.10
2023-07-07T21:45:53.413Z,6.60
2023-07-07T21:47:59.895Z,6.00
2023-07-07T21:50:03.460Z,6.27
2023-07-07T21:52:15.959Z,6.20
2023-07-07T21:54:19.824Z,6.10
2023-07-07T21:56:25.606Z,7.43
2023-07-07T21:58:28.962Z,5.77
2023-07-07T22:00:34.996Z,6.73
2023-07-07T22:02:37.309Z,6.90
2023-07-07T22:04:41.168Z,6.90
2023-07-07T22:06:44.640Z,6.00
2023-07-07T22:08:48.154Z,5.47
2023-07-07T22:10:53.722Z,6.40
2023-07-07T22:12:56.929Z,6.53
2023-07-07T22:15:00.257Z,6.20
2023-07-07T22:17:05.448Z,6.10
2023-07-07T22:19:13.126Z,6.20
2023-07-07T22:21:16.753Z,5.77
2023-07-07T22:23:20.309Z,5.77
2023-07-07T22:25:22.875Z,6.40
2023-07-07T22:27:26.468Z,5.50
2023-07-07T22:29:29.987Z,5.93
2023-07-07T22:31:33.563Z,6.30
2023-07-07T22:33:38.566Z,7.10
2023-07-07T22:35:42.542Z,7.17
2023-07-07T22:37:46.132Z,5.80
2023-07-07T22:39:49.547Z,6.07
2023-07-07T22:41:52.874Z,6.27
2023-07-07T22:43:56.892Z,6.80
2023-07-07T22:46:03.079Z,6.30
2023-07-07T22:48:13.016Z,6.10
2023-07-07T22:50:20.221Z,5.97
2023-07-07T22:52:24.054Z,6.40
2023-07-07T22:54:27.817Z,6.27
2023-07-07T22:56:33.074Z,6.03
2023-07-07T22:58:36.704Z,6.07
2023-07-07T23:00:41.164Z,6.53
2023-07-07T23:02:45.122Z,6.60
2023-07-07T23:04:48.751Z,7.43
2023-07-07T23:06:53.941Z,5.23
2023-07-07T23:08:59.390Z,5.90
2023-07-07T23:11:03.068Z,7.13
2023-07-07T23:13:06.375Z,5.43
2023-07-07T23:15:11.632Z,5.80
2023-07-07T23:17:22.662Z,5.43
2023-07-07T23:19:26.127Z,5.50
2023-07-07T23:21:29.573Z,5.70
2023-07-07T23:23:34.354Z,5.03
2023-07-07T23:25:38.552Z,7.03
2023-07-07T23:27:50.377Z,6.23
2023-07-07T23:29:55.327Z,7.00
2023-07-07T23:31:58.926Z,5.40
2023-07-07T23:34:03.627Z,6.43
2023-07-07T23:36:17.107Z,5.37
2023-07-07T23:38:22.205Z,6.57
2023-07-07T23:40:29.224Z,5.93
2023-07-07T23:42:32.779Z,6.00
2023-07-07T23:44:36.128Z,5.13
2023-07-07T23:46:39.908Z,5.17
2023-07-07T23:48:43.298Z,6.30
2023-07-07T23:50:50.665Z,6.20
2023-07-07T23:52:54.455Z,6.40
2023-07-07T23:54:57.742Z,6.07
2023-07-07T23:57:02.464Z,6.40
2023-07-07T23:59:11.010Z,5.33
